sensor_id;sensor_type;location;lat;lon;timestamp;P1;durP1;ratioP1;P2;durP2;ratioP2
17890;SDS011;9071;48.220;14.480;2023-04-30T00:01:48;4.77;;;4.23;;
17890;SDS011;9071;48.220;14.480;2023-04-30T00:06:50;5.67;;;4.83;;
17890;SDS011;9071;48.220;14.480;2023-04-30T00:11:53;4.77;;;4.17;;
17890;SDS011;9071;48.220;14.480;2023-04-30T00:16:55;8.10;;;4.63;;
17890;SDS011;9071;48.220;14.480;2023-04-30T00:21:57;4.90;;;4.17;;
17890;SDS011;9071;48.220;14.480;2023-04-30T00:27:01;5.70;;;4.63;;
17890;SDS011;9071;48.220;14.480;2023-04-30T00:32:04;5.97;;;4.80;;
17890;SDS011;9071;48.220;14.480;2023-04-30T00:37:06;5.53;;;4.50;;
17890;SDS011;9071;48.220;14.480;2023-04-30T00:42:10;4.97;;;4.30;;
17890;SDS011;9071;48.220;14.480;2023-04-30T00:47:12;5.10;;;4.07;;
17890;SDS011;9071;48.220;14.480;2023-04-30T00:52:14;7.60;;;4.60;;
17890;SDS011;9071;48.220;14.480;2023-04-30T00:57:17;4.57;;;3.97;;
17890;SDS011;9071;48.220;14.480;2023-04-30T01:02:21;5.23;;;4.43;;
17890;SDS011;9071;48.220;14.480;2023-04-30T01:07:23;5.20;;;4.70;;
17890;SDS011;9071;48.220;14.480;2023-04-30T01:12:31;5.50;;;4.50;;
17890;SDS011;9071;48.220;14.480;2023-04-30T01:17:43;7.20;;;5.23;;
17890;SDS011;9071;48.220;14.480;2023-04-30T01:22:54;5.60;;;4.60;;
17890;SDS011;9071;48.220;14.480;2023-04-30T01:28:05;6.10;;;4.40;;
17890;SDS011;9071;48.220;14.480;2023-04-30T01:33:09;6.93;;;5.17;;
17890;SDS011;9071;48.220;14.480;2023-04-30T01:38:15;6.70;;;5.20;;
17890;SDS011;9071;48.220;14.480;2023-04-30T01:43:28;7.27;;;4.67;;
17890;SDS011;9071;48.220;14.480;2023-04-30T01:48:42;6.53;;;5.27;;
17890;SDS011;9071;48.220;14.480;2023-04-30T01:53:53;6.03;;;4.73;;
17890;SDS011;9071;48.220;14.480;2023-04-30T01:58:59;6.67;;;5.13;;
17890;SDS011;9071;48.220;14.480;2023-04-30T02:04:02;6.93;;;5.80;;
17890;SDS011;9071;48.220;14.480;2023-04-30T02:09:04;7.23;;;5.60;;
17890;SDS011;9071;48.220;14.480;2023-04-30T02:14:08;7.73;;;5.93;;
17890;SDS011;9071;48.220;14.480;2023-04-30T02:19:10;6.67;;;5.37;;
17890;SDS011;9071;48.220;14.480;2023-04-30T02:24:12;7.17;;;5.53;;
17890;SDS011;9071;48.220;14.480;2023-04-30T02:29:16;7.33;;;6.03;;
17890;SDS011;9071;48.220;14.480;2023-04-30T02:34:18;9.17;;;6.70;;
17890;SDS011;9071;48.220;14.480;2023-04-30T02:39:20;9.33;;;6.47;;
17890;SDS011;9071;48.220;14.480;2023-04-30T02:44:23;9.00;;;6.57;;
17890;SDS011;9071;48.220;14.480;2023-04-30T02:49:26;9.87;;;6.73;;
17890;SDS011;9071;48.220;14.480;2023-04-30T02:54:28;9.17;;;6.83;;
17890;SDS011;9071;48.220;14.480;2023-04-30T02:59:31;9.90;;;7.07;;
17890;SDS011;9071;48.220;14.480;2023-04-30T03:04:33;11.07;;;7.33;;
17890;SDS011;9071;48.220;14.480;2023-04-30T03:09:35;10.40;;;7.53;;
17890;SDS011;9071;48.220;14.480;2023-04-30T03:14:39;8.30;;;6.67;;
17890;SDS011;9071;48.220;14.480;2023-04-30T03:19:41;9.23;;;6.97;;
17890;SDS011;9071;48.220;14.480;2023-04-30T03:24:43;9.30;;;6.73;;
17890;SDS011;9071;48.220;14.480;2023-04-30T03:29:47;10.40;;;7.47;;
17890;SDS011;9071;48.220;14.480;2023-04-30T03:34:49;10.00;;;7.40;;
17890;SDS011;9071;48.220;14.480;2023-04-30T03:39:51;10.07;;;7.70;;
17890;SDS011;9071;48.220;14.480;2023-04-30T03:44:54;10.20;;;7.33;;
17890;SDS011;9071;48.220;14.480;2023-04-30T03:49:57;10.17;;;7.57;;
17890;SDS011;9071;48.220;14.480;2023-04-30T03:54:59;9.90;;;7.10;;
17890;SDS011;9071;48.220;14.480;2023-04-30T04:00:02;11.20;;;8.00;;
17890;SDS011;9071;48.220;14.480;2023-04-30T04:05:06;7.80;;;6.50;;
17890;SDS011;9071;48.220;14.480;2023-04-30T04:10:09;9.13;;;6.83;;
17890;SDS011;9071;48.220;14.480;2023-04-30T04:15:12;11.30;;;7.10;;
17890;SDS011;9071;48.220;14.480;2023-04-30T04:20:15;8.13;;;6.67;;
17890;SDS011;9071;48.220;14.480;2023-04-30T04:25:17;9.03;;;6.80;;
17890;SDS011;9071;48.220;14.480;2023-04-30T04:30:21;9.83;;;6.97;;
17890;SDS011;9071;48.220;14.480;2023-04-30T04:35:23;9.87;;;7.63;;
17890;SDS011;9071;48.220;14.480;2023-04-30T04:40:25;9.30;;;7.30;;
17890;SDS011;9071;48.220;14.480;2023-04-30T04:45:28;10.53;;;7.53;;
17890;SDS011;9071;48.220;14.480;2023-04-30T04:50:31;10.23;;;7.50;;
17890;SDS011;9071;48.220;14.480;2023-04-30T04:55:33;12.47;;;8.80;;
17890;SDS011;9071;48.220;14.480;2023-04-30T05:00:38;12.00;;;7.80;;
17890;SDS011;9071;48.220;14.480;2023-04-30T05:05:40;10.43;;;8.20;;
17890;SDS011;9071;48.220;14.480;2023-04-30T05:10:43;8.73;;;7.30;;
17890;SDS011;9071;48.220;14.480;2023-04-30T05:15:48;10.43;;;7.13;;
17890;SDS011;9071;48.220;14.480;2023-04-30T05:20:51;8.90;;;7.57;;
17890;SDS011;9071;48.220;14.480;2023-04-30T05:25:54;10.30;;;7.33;;
17890;SDS011;9071;48.220;14.480;2023-04-30T05:30:58;8.83;;;7.63;;
17890;SDS011;9071;48.220;14.480;2023-04-30T05:36:00;9.83;;;7.97;;
17890;SDS011;9071;48.220;14.480;2023-04-30T05:41:02;9.67;;;7.80;;
17890;SDS011;9071;48.220;14.480;2023-04-30T05:46:06;10.23;;;8.17;;
17890;SDS011;9071;48.220;14.480;2023-04-30T05:51:08;11.50;;;7.87;;
17890;SDS011;9071;48.220;14.480;2023-04-30T05:56:10;8.93;;;7.10;;
17890;SDS011;9071;48.220;14.480;2023-04-30T06:01:14;10.33;;;6.97;;
17890;SDS011;9071;48.220;14.480;2023-04-30T06:06:18;9.20;;;7.47;;
17890;SDS011;9071;48.220;14.480;2023-04-30T06:11:20;8.73;;;7.07;;
17890;SDS011;9071;48.220;14.480;2023-04-30T06:16:26;8.00;;;6.13;;
17890;SDS011;9071;48.220;14.480;2023-04-30T06:21:29;8.23;;;6.82;;
17890;SDS011;9071;48.220;14.480;2023-04-30T06:26:31;8.82;;;6.40;;
17890;SDS011;9071;48.220;14.480;2023-04-30T06:31:34;7.50;;;6.55;;
17890;SDS011;9071;48.220;14.480;2023-04-30T06:36:36;6.72;;;5.65;;
17890;SDS011;9071;48.220;14.480;2023-04-30T06:41:39;7.18;;;5.93;;
17890;SDS011;9071;48.220;14.480;2023-04-30T06:46:42;8.02;;;6.53;;
17890;SDS011;9071;48.220;14.480;2023-04-30T06:51:44;7.90;;;6.13;;
17890;SDS011;9071;48.220;14.480;2023-04-30T06:56:46;10.25;;;7.53;;
17890;SDS011;9071;48.220;14.480;2023-04-30T07:01:50;9.77;;;7.80;;
17890;SDS011;9071;48.220;14.480;2023-04-30T07:06:52;10.73;;;8.30;;
17890;SDS011;9071;48.220;14.480;2023-04-30T07:11:54;11.13;;;8.43;;
17890;SDS011;9071;48.220;14.480;2023-04-30T07:16:59;9.50;;;8.03;;
17890;SDS011;9071;48.220;14.480;2023-04-30T07:22:01;10.97;;;8.03;;
17890;SDS011;9071;48.220;14.480;2023-04-30T07:27:03;10.70;;;8.20;;
17890;SDS011;9071;48.220;14.480;2023-04-30T07:32:07;9.33;;;7.10;;
17890;SDS011;9071;48.220;14.480;2023-04-30T07:37:10;9.03;;;7.03;;
17890;SDS011;9071;48.220;14.480;2023-04-30T07:42:12;8.37;;;7.13;;
17890;SDS011;9071;48.220;14.480;2023-04-30T07:47:16;8.35;;;7.05;;
17890;SDS011;9071;48.220;14.480;2023-04-30T07:52:19;8.65;;;7.18;;
17890;SDS011;9071;48.220;14.480;2023-04-30T07:57:21;9.38;;;7.18;;
17890;SDS011;9071;48.220;14.480;2023-04-30T08:02:27;7.93;;;6.35;;
17890;SDS011;9071;48.220;14.480;2023-04-30T08:07:29;9.90;;;7.50;;
17890;SDS011;9071;48.220;14.480;2023-04-30T08:12:31;7.43;;;6.65;;
17890;SDS011;9071;48.220;14.480;2023-04-30T08:17:37;8.50;;;6.60;;
17890;SDS011;9071;48.220;14.480;2023-04-30T08:22:39;11.82;;;6.57;;
17890;SDS011;9071;48.220;14.480;2023-04-30T08:27:41;9.43;;;6.90;;
17890;SDS011;9071;48.220;14.480;2023-04-30T08:32:44;8.75;;;6.90;;
17890;SDS011;9071;48.220;14.480;2023-04-30T08:37:46;9.23;;;7.35;;
17890;SDS011;9071;48.220;14.480;2023-04-30T08:42:50;7.70;;;6.80;;
17890;SDS011;9071;48.220;14.480;2023-04-30T08:48:02;6.97;;;6.28;;
17890;SDS011;9071;48.220;14.480;2023-04-30T08:53:06;8.65;;;6.38;;
17890;SDS011;9071;48.220;14.480;2023-04-30T08:58:10;8.10;;;7.05;;
17890;SDS011;9071;48.220;14.480;2023-04-30T09:03:14;8.18;;;6.68;;
17890;SDS011;9071;48.220;14.480;2023-04-30T09:08:16;7.90;;;6.20;;
17890;SDS011;9071;48.220;14.480;2023-04-30T09:13:19;8.18;;;6.70;;
17890;SDS011;9071;48.220;14.480;2023-04-30T09:18:22;7.50;;;6.63;;
17890;SDS011;9071;48.220;14.480;2023-04-30T09:23:24;8.55;;;6.57;;
17890;SDS011;9071;48.220;14.480;2023-04-30T09:28:27;7.10;;;6.28;;
17890;SDS011;9071;48.220;14.480;2023-04-30T09:33:31;8.10;;;6.65;;
17890;SDS011;9071;48.220;14.480;2023-04-30T09:38:46;9.30;;;6.95;;
17890;SDS011;9071;48.220;14.480;2023-04-30T09:43:48;7.68;;;6.93;;
17890;SDS011;9071;48.220;14.480;2023-04-30T09:48:58;7.45;;;6.75;;
17890;SDS011;9071;48.220;14.480;2023-04-30T09:54:01;8.23;;;6.40;;
17890;SDS011;9071;48.220;14.480;2023-04-30T09:59:04;8.50;;;6.93;;
17890;SDS011;9071;48.220;14.480;2023-04-30T10:04:11;9.88;;;6.72;;
17890;SDS011;9071;48.220;14.480;2023-04-30T10:09:13;8.50;;;6.35;;
17890;SDS011;9071;48.220;14.480;2023-04-30T10:14:16;11.00;;;7.20;;
17890;SDS011;9071;48.220;14.480;2023-04-30T10:19:22;7.85;;;6.15;;
17890;SDS011;9071;48.220;14.480;2023-04-30T10:24:25;27.55;;;20.20;;
17890;SDS011;9071;48.220;14.480;2023-04-30T10:29:28;7.43;;;6.13;;
17890;SDS011;9071;48.220;14.480;2023-04-30T10:34:33;6.85;;;5.88;;
17890;SDS011;9071;48.220;14.480;2023-04-30T10:39:41;8.23;;;6.13;;
17890;SDS011;9071;48.220;14.480;2023-04-30T10:44:43;7.25;;;6.55;;
17890;SDS011;9071;48.220;14.480;2023-04-30T10:49:47;7.85;;;6.97;;
17890;SDS011;9071;48.220;14.480;2023-04-30T10:54:50;9.05;;;6.43;;
17890;SDS011;9071;48.220;14.480;2023-04-30T10:59:52;7.35;;;5.47;;
17890;SDS011;9071;48.220;14.480;2023-04-30T11:05:17;6.88;;;5.32;;
17890;SDS011;9071;48.220;14.480;2023-04-30T11:10:20;7.18;;;5.68;;
17890;SDS011;9071;48.220;14.480;2023-04-30T11:15:23;7.75;;;5.25;;
17890;SDS011;9071;48.220;14.480;2023-04-30T11:20:28;7.15;;;4.53;;
17890;SDS011;9071;48.220;14.480;2023-04-30T11:25:31;6.18;;;4.70;;
17890;SDS011;9071;48.220;14.480;2023-04-30T11:30:40;6.07;;;4.18;;
17890;SDS011;9071;48.220;14.480;2023-04-30T11:35:51;5.63;;;3.10;;
17890;SDS011;9071;48.220;14.480;2023-04-30T11:40:55;4.55;;;3.20;;
17890;SDS011;9071;48.220;14.480;2023-04-30T11:46:08;7.30;;;3.78;;
17890;SDS011;9071;48.220;14.480;2023-04-30T11:51:16;4.63;;;3.38;;
17890;SDS011;9071;48.220;14.480;2023-04-30T11:56:19;4.32;;;3.13;;
17890;SDS011;9071;48.220;14.480;2023-04-30T12:01:25;4.75;;;3.58;;
17890;SDS011;9071;48.220;14.480;2023-04-30T12:06:29;3.95;;;3.33;;
17890;SDS011;9071;48.220;14.480;2023-04-30T12:11:32;4.07;;;3.60;;
17890;SDS011;9071;48.220;14.480;2023-04-30T12:16:38;4.63;;;3.67;;
17890;SDS011;9071;48.220;14.480;2023-04-30T12:21:43;4.25;;;3.08;;
17890;SDS011;9071;48.220;14.480;2023-04-30T12:26:47;4.28;;;3.10;;
17890;SDS011;9071;48.220;14.480;2023-04-30T12:31:53;4.22;;;3.22;;
17890;SDS011;9071;48.220;14.480;2023-04-30T12:36:57;4.07;;;3.63;;
17890;SDS011;9071;48.220;14.480;2023-04-30T12:41:59;4.00;;;3.60;;
17890;SDS011;9071;48.220;14.480;2023-04-30T12:47:05;5.70;;;3.60;;
17890;SDS011;9071;48.220;14.480;2023-04-30T12:52:11;5.55;;;3.47;;
17890;SDS011;9071;48.220;14.480;2023-04-30T12:57:14;4.43;;;3.17;;
17890;SDS011;9071;48.220;14.480;2023-04-30T13:02:16;3.60;;;2.88;;
17890;SDS011;9071;48.220;14.480;2023-04-30T13:07:20;3.60;;;2.92;;
17890;SDS011;9071;48.220;14.480;2023-04-30T13:12:22;4.05;;;2.95;;
17890;SDS011;9071;48.220;14.480;2023-04-30T13:17:24;3.75;;;2.92;;
17890;SDS011;9071;48.220;14.480;2023-04-30T13:22:28;6.30;;;2.72;;
17890;SDS011;9071;48.220;14.480;2023-04-30T13:27:30;3.97;;;2.08;;
17890;SDS011;9071;48.220;14.480;2023-04-30T13:32:32;2.67;;;2.33;;
17890;SDS011;9071;48.220;14.480;2023-04-30T13:37:36;3.58;;;2.47;;
17890;SDS011;9071;48.220;14.480;2023-04-30T13:42:39;3.38;;;2.13;;
17890;SDS011;9071;48.220;14.480;2023-04-30T13:47:42;2.97;;;2.10;;
17890;SDS011;9071;48.220;14.480;2023-04-30T13:52:45;3.63;;;2.28;;
17890;SDS011;9071;48.220;14.480;2023-04-30T13:57:47;2.38;;;2.00;;
17890;SDS011;9071;48.220;14.480;2023-04-30T14:02:50;3.55;;;2.05;;
17890;SDS011;9071;48.220;14.480;2023-04-30T14:07:54;2.67;;;2.33;;
17890;SDS011;9071;48.220;14.480;2023-04-30T14:12:56;2.40;;;2.20;;
17890;SDS011;9071;48.220;14.480;2023-04-30T14:17:58;3.53;;;2.22;;
17890;SDS011;9071;48.220;14.480;2023-04-30T14:23:02;2.30;;;2.10;;
17890;SDS011;9071;48.220;14.480;2023-04-30T14:28:04;3.13;;;2.38;;
17890;SDS011;9071;48.220;14.480;2023-04-30T14:33:06;5.97;;;2.30;;
17890;SDS011;9071;48.220;14.480;2023-04-30T14:38:11;4.15;;;2.60;;
17890;SDS011;9071;48.220;14.480;2023-04-30T14:43:13;2.80;;;2.35;;
17890;SDS011;9071;48.220;14.480;2023-04-30T14:48:15;3.65;;;2.40;;
17890;SDS011;9071;48.220;14.480;2023-04-30T14:53:19;3.70;;;2.83;;
17890;SDS011;9071;48.220;14.480;2023-04-30T14:58:21;2.90;;;2.60;;
17890;SDS011;9071;48.220;14.480;2023-04-30T15:03:23;2.63;;;2.03;;
17890;SDS011;9071;48.220;14.480;2023-04-30T15:08:26;3.33;;;2.33;;
17890;SDS011;9071;48.220;14.480;2023-04-30T15:13:28;3.00;;;2.47;;
17890;SDS011;9071;48.220;14.480;2023-04-30T15:18:31;3.10;;;2.35;;
17890;SDS011;9071;48.220;14.480;2023-04-30T15:23:35;4.20;;;2.55;;
17890;SDS011;9071;48.220;14.480;2023-04-30T15:28:37;5.10;;;2.50;;
17890;SDS011;9071;48.220;14.480;2023-04-30T15:33:39;4.68;;;2.55;;
17890;SDS011;9071;48.220;14.480;2023-04-30T15:38:43;4.82;;;2.70;;
17890;SDS011;9071;48.220;14.480;2023-04-30T15:43:45;3.88;;;2.83;;
17890;SDS011;9071;48.220;14.480;2023-04-30T15:48:47;4.07;;;2.40;;
17890;SDS011;9071;48.220;14.480;2023-04-30T15:53:51;3.58;;;2.83;;
17890;SDS011;9071;48.220;14.480;2023-04-30T15:58:53;3.67;;;2.50;;
17890;SDS011;9071;48.220;14.480;2023-04-30T16:03:55;3.92;;;2.58;;
17890;SDS011;9071;48.220;14.480;2023-04-30T16:08:58;4.10;;;3.00;;
17890;SDS011;9071;48.220;14.480;2023-04-30T16:14:05;3.03;;;2.42;;
17890;SDS011;9071;48.220;14.480;2023-04-30T16:19:07;4.35;;;2.78;;
17890;SDS011;9071;48.220;14.480;2023-04-30T16:24:12;6.68;;;2.70;;
17890;SDS011;9071;48.220;14.480;2023-04-30T16:29:15;4.88;;;2.53;;
17890;SDS011;9071;48.220;14.480;2023-04-30T16:34:17;5.03;;;2.70;;
17890;SDS011;9071;48.220;14.480;2023-04-30T16:39:20;2.65;;;2.45;;
17890;SDS011;9071;48.220;14.480;2023-04-30T16:44:22;4.22;;;2.60;;
17890;SDS011;9071;48.220;14.480;2023-04-30T16:49:25;3.75;;;3.10;;
17890;SDS011;9071;48.220;14.480;2023-04-30T16:54:28;4.03;;;2.63;;
17890;SDS011;9071;48.220;14.480;2023-04-30T16:59:30;4.18;;;2.70;;
17890;SDS011;9071;48.220;14.480;2023-04-30T17:04:32;3.70;;;2.67;;
17890;SDS011;9071;48.220;14.480;2023-04-30T17:09:36;4.13;;;2.70;;
17890;SDS011;9071;48.220;14.480;2023-04-30T17:14:38;3.60;;;2.70;;
17890;SDS011;9071;48.220;14.480;2023-04-30T17:19:41;3.65;;;2.60;;
17890;SDS011;9071;48.220;14.480;2023-04-30T17:24:44;5.07;;;3.03;;
17890;SDS011;9071;48.220;14.480;2023-04-30T17:29:46;3.95;;;3.25;;
17890;SDS011;9071;48.220;14.480;2023-04-30T17:34:50;5.07;;;3.15;;
17890;SDS011;9071;48.220;14.480;2023-04-30T17:39:53;4.72;;;3.67;;
17890;SDS011;9071;48.220;14.480;2023-04-30T17:44:55;4.88;;;3.08;;
17890;SDS011;9071;48.220;14.480;2023-04-30T17:49:57;6.25;;;3.45;;
17890;SDS011;9071;48.220;14.480;2023-04-30T17:55:05;4.60;;;3.70;;
17890;SDS011;9071;48.220;14.480;2023-04-30T18:00:08;5.15;;;2.97;;
17890;SDS011;9071;48.220;14.480;2023-04-30T18:05:11;5.97;;;3.35;;
17890;SDS011;9071;48.220;14.480;2023-04-30T18:10:15;4.00;;;3.30;;
17890;SDS011;9071;48.220;14.480;2023-04-30T18:15:17;4.50;;;3.30;;
17890;SDS011;9071;48.220;14.480;2023-04-30T18:20:19;4.93;;;4.20;;
17890;SDS011;9071;48.220;14.480;2023-04-30T18:25:23;4.27;;;3.40;;
17890;SDS011;9071;48.220;14.480;2023-04-30T18:30:26;4.73;;;3.50;;
17890;SDS011;9071;48.220;14.480;2023-04-30T18:35:29;6.50;;;3.80;;
17890;SDS011;9071;48.220;14.480;2023-04-30T18:40:32;5.10;;;3.87;;
17890;SDS011;9071;48.220;14.480;2023-04-30T18:45:34;5.50;;;4.37;;
17890;SDS011;9071;48.220;14.480;2023-04-30T18:50:36;5.63;;;4.60;;
17890;SDS011;9071;48.220;14.480;2023-04-30T18:55:40;7.47;;;5.43;;
17890;SDS011;9071;48.220;14.480;2023-04-30T19:00:42;10.97;;;6.37;;
17890;SDS011;9071;48.220;14.480;2023-04-30T19:05:44;10.23;;;7.43;;
17890;SDS011;9071;48.220;14.480;2023-04-30T19:10:48;11.87;;;6.90;;
17890;SDS011;9071;48.220;14.480;2023-04-30T19:15:51;12.97;;;7.03;;
17890;SDS011;9071;48.220;14.480;2023-04-30T19:20:54;11.77;;;7.17;;
17890;SDS011;9071;48.220;14.480;2023-04-30T19:26:00;14.73;;;7.17;;
17890;SDS011;9071;48.220;14.480;2023-04-30T19:31:02;9.93;;;6.57;;
17890;SDS011;9071;48.220;14.480;2023-04-30T19:36:05;10.70;;;6.60;;
17890;SDS011;9071;48.220;14.480;2023-04-30T19:41:09;8.93;;;6.20;;
17890;SDS011;9071;48.220;14.480;2023-04-30T19:46:11;9.63;;;6.17;;
17890;SDS011;9071;48.220;14.480;2023-04-30T19:51:13;10.73;;;6.80;;
17890;SDS011;9071;48.220;14.480;2023-04-30T19:56:17;8.93;;;6.77;;
17890;SDS011;9071;48.220;14.480;2023-04-30T20:01:19;8.40;;;6.97;;
17890;SDS011;9071;48.220;14.480;2023-04-30T20:06:21;10.27;;;7.47;;
17890;SDS011;9071;48.220;14.480;2023-04-30T20:11:25;10.80;;;7.87;;
17890;SDS011;9071;48.220;14.480;2023-04-30T20:16:27;11.70;;;8.50;;
17890;SDS011;9071;48.220;14.480;2023-04-30T20:21:29;14.57;;;9.30;;
17890;SDS011;9071;48.220;14.480;2023-04-30T20:26:33;12.03;;;8.67;;
17890;SDS011;9071;48.220;14.480;2023-04-30T20:31:35;11.40;;;9.03;;
17890;SDS011;9071;48.220;14.480;2023-04-30T20:36:37;10.07;;;8.43;;
17890;SDS011;9071;48.220;14.480;2023-04-30T20:41:41;9.87;;;7.80;;
17890;SDS011;9071;48.220;14.480;2023-04-30T20:46:47;9.20;;;7.33;;
17890;SDS011;9071;48.220;14.480;2023-04-30T20:51:49;11.67;;;7.40;;
17890;SDS011;9071;48.220;14.480;2023-04-30T20:56:52;14.13;;;8.47;;
17890;SDS011;9071;48.220;14.480;2023-04-30T21:01:54;10.40;;;7.27;;
17890;SDS011;9071;48.220;14.480;2023-04-30T21:06:56;10.93;;;7.10;;
17890;SDS011;9071;48.220;14.480;2023-04-30T21:12:00;9.57;;;7.67;;
17890;SDS011;9071;48.220;14.480;2023-04-30T21:17:03;8.73;;;5.93;;
17890;SDS011;9071;48.220;14.480;2023-04-30T21:22:06;7.40;;;6.30;;
17890;SDS011;9071;48.220;14.480;2023-04-30T21:27:09;9.97;;;6.27;;
17890;SDS011;9071;48.220;14.480;2023-04-30T21:32:11;7.50;;;6.50;;
17890;SDS011;9071;48.220;14.480;2023-04-30T21:37:13;8.23;;;6.67;;
17890;SDS011;9071;48.220;14.480;2023-04-30T21:42:17;9.10;;;7.00;;
17890;SDS011;9071;48.220;14.480;2023-04-30T21:47:19;11.77;;;7.73;;
17890;SDS011;9071;48.220;14.480;2023-04-30T21:52:21;10.27;;;7.10;;
17890;SDS011;9071;48.220;14.480;2023-04-30T21:57:25;8.27;;;6.70;;
17890;SDS011;9071;48.220;14.480;2023-04-30T22:02:29;13.33;;;7.47;;
17890;SDS011;9071;48.220;14.480;2023-04-30T22:07:31;10.40;;;7.50;;
17890;SDS011;9071;48.220;14.480;2023-04-30T22:12:35;9.00;;;7.47;;
17890;SDS011;9071;48.220;14.480;2023-04-30T22:17:37;11.70;;;7.63;;
17890;SDS011;9071;48.220;14.480;2023-04-30T22:22:40;12.17;;;7.97;;
17890;SDS011;9071;48.220;14.480;2023-04-30T22:27:44;14.53;;;8.50;;
17890;SDS011;9071;48.220;14.480;2023-04-30T22:32:46;10.33;;;8.03;;
17890;SDS011;9071;48.220;14.480;2023-04-30T22:37:48;10.83;;;8.60;;
17890;SDS011;9071;48.220;14.480;2023-04-30T22:42:52;12.23;;;9.73;;
17890;SDS011;9071;48.220;14.480;2023-04-30T22:47:54;13.00;;;9.77;;
17890;SDS011;9071;48.220;14.480;2023-04-30T22:52:57;12.70;;;9.43;;
17890;SDS011;9071;48.220;14.480;2023-04-30T22:58:01;11.43;;;8.13;;
17890;SDS011;9071;48.220;14.480;2023-04-30T23:03:03;12.87;;;9.17;;
17890;SDS011;9071;48.220;14.480;2023-04-30T23:08:05;12.67;;;9.90;;
17890;SDS011;9071;48.220;14.480;2023-04-30T23:13:08;13.40;;;9.60;;
17890;SDS011;9071;48.220;14.480;2023-04-30T23:18:11;16.03;;;10.63;;
17890;SDS011;9071;48.220;14.480;2023-04-30T23:23:13;14.17;;;10.67;;
17890;SDS011;9071;48.220;14.480;2023-04-30T23:28:16;17.53;;;10.40;;
17890;SDS011;9071;48.220;14.480;2023-04-30T23:33:18;12.97;;;9.77;;
17890;SDS011;9071;48.220;14.480;2023-04-30T23:38:20;12.37;;;9.40;;
17890;SDS011;9071;48.220;14.480;2023-04-30T23:43:24;15.37;;;10.03;;
17890;SDS011;9071;48.220;14.480;2023-04-30T23:48:28;11.03;;;8.63;;
17890;SDS011;9071;48.220;14.480;2023-04-30T23:53:31;12.53;;;8.73;;
17890;SDS011;9071;48.220;14.480;2023-04-30T23:58:35;12.87;;;8.43;;
